createdAt,value
2022-12-13T00:01:50.356Z,8.07
2022-12-13T00:04:20.395Z,7.88
2022-12-13T00:06:48.901Z,8.68
2022-12-13T00:09:18.283Z,8.95
2022-12-13T00:11:46.191Z,8.18
2022-12-13T00:14:14.340Z,8.50
2022-12-13T00:16:45.678Z,8.18
2022-12-13T00:19:13.194Z,8.70
2022-12-13T00:21:43.011Z,7.63
2022-12-13T00:24:09.964Z,8.05
2022-12-13T00:26:38.641Z,7.63
2022-12-13T00:29:07.352Z,7.25
2022-12-13T00:34:25.292Z,7.72
2022-12-13T00:36:59.230Z,7.93
2022-12-13T00:39:26.657Z,8.25
2022-12-13T00:41:56.375Z,8.00
2022-12-13T00:44:23.620Z,7.53
2022-12-13T00:46:53.940Z,7.57
2022-12-13T00:49:21.241Z,7.35
2022-12-13T00:51:51.957Z,8.27
2022-12-13T00:54:21.545Z,7.88
2022-12-13T00:56:51.260Z,8.30
2022-12-13T00:59:18.315Z,8.20
2022-12-13T01:01:45.719Z,8.43
2022-12-13T01:04:13.587Z,7.93
2022-12-13T01:06:43.677Z,8.10
2022-12-13T01:09:20.671Z,7.85
2022-12-13T01:11:49.127Z,7.85
2022-12-13T01:14:16.824Z,7.68
2022-12-13T01:16:44.135Z,8.55
2022-12-13T01:19:11.416Z,8.60
2022-12-13T01:21:39.086Z,9.10
2022-12-13T01:24:06.947Z,8.07
2022-12-13T01:26:34.656Z,8.43
2022-12-13T01:29:02.080Z,9.10
2022-12-13T01:31:29.349Z,9.05
2022-12-13T01:33:57.108Z,8.02
2022-12-13T01:36:28.151Z,7.97
2022-12-13T01:38:59.389Z,8.18
2022-12-13T01:41:28.864Z,7.60
2022-12-13T01:44:01.441Z,9.23
2022-12-13T01:46:31.489Z,8.73
2022-12-13T01:49:20.454Z,9.20
2022-12-13T01:52:01.127Z,8.43
2022-12-13T01:54:39.651Z,8.75
2022-12-13T01:57:17.952Z,7.88
2022-12-13T01:59:45.989Z,8.38
2022-12-13T02:02:15.023Z,8.30
2022-12-13T02:04:48.707Z,9.00
2022-12-13T02:07:23.091Z,8.35
2022-12-13T02:09:57.157Z,8.73
2022-12-13T02:12:30.764Z,8.52
2022-12-13T02:15:05.293Z,8.63
2022-12-13T02:17:45.340Z,8.38
2022-12-13T02:20:22.507Z,8.82
2022-12-13T02:23:07.229Z,9.57
2022-12-13T02:25:53.267Z,8.70
2022-12-13T02:28:39.191Z,9.23
2022-12-13T02:31:14.994Z,9.73
2022-12-13T02:34:08.611Z,8.23
2022-12-13T02:36:50.012Z,8.48
2022-12-13T02:39:31.139Z,9.48
2022-12-13T02:42:26.937Z,9.02
2022-12-13T02:45:01.362Z,7.97
2022-12-13T02:47:34.176Z,9.90
2022-12-13T02:50:06.293Z,8.98
2022-12-13T02:52:34.753Z,8.80
2022-12-13T02:55:07.284Z,8.75
2022-12-13T02:57:41.084Z,9.57
2022-12-13T03:00:14.505Z,10.18
2022-12-13T03:03:07.265Z,9.90
2022-12-13T03:06:09.100Z,10.18
2022-12-13T03:08:48.670Z,10.13
2022-12-13T03:11:19.611Z,9.07
2022-12-13T03:14:03.375Z,10.38
2022-12-13T03:16:38.077Z,10.45
2022-12-13T03:19:07.834Z,10.50
2022-12-13T03:21:48.597Z,10.25
2022-12-13T03:24:21.199Z,9.93
2022-12-13T03:26:52.422Z,10.07
2022-12-13T03:29:23.879Z,11.30
2022-12-13T03:31:53.286Z,10.43
2022-12-13T03:34:22.933Z,10.15
2022-12-13T03:36:53.734Z,10.57
2022-12-13T03:39:21.366Z,10.73
2022-12-13T03:41:50.333Z,10.90
2022-12-13T03:44:17.415Z,11.07
2022-12-13T03:46:47.425Z,11.55
2022-12-13T03:49:17.307Z,11.52
2022-12-13T03:51:45.587Z,11.07
2022-12-13T03:54:12.827Z,10.15
2022-12-13T03:56:40.053Z,10.43
2022-12-13T03:59:07.073Z,11.45
2022-12-13T04:01:36.587Z,11.18
2022-12-13T04:04:03.719Z,11.07
2022-12-13T04:06:33.452Z,11.32
2022-12-13T04:09:00.659Z,11.32
2022-12-13T04:11:46.442Z,12.23
2022-12-13T04:14:22.795Z,10.85
2022-12-13T04:16:53.601Z,9.50
2022-12-13T04:19:24.083Z,11.88
2022-12-13T04:21:54.716Z,11.43
2022-12-13T04:24:31.916Z,11.30
2022-12-13T04:27:02.283Z,10.82
2022-12-13T04:29:34.334Z,10.73
2022-12-13T04:32:04.137Z,10.02
2022-12-13T04:34:36.848Z,9.63
2022-12-13T04:37:05.808Z,10.48
2022-12-13T04:39:35.588Z,10.10
2022-12-13T04:42:03.481Z,10.20
2022-12-13T04:44:36.508Z,10.90
2022-12-13T04:47:04.997Z,11.00
2022-12-13T04:49:32.042Z,11.10
2022-12-13T04:52:05.422Z,10.32
2022-12-13T04:54:36.514Z,10.95
2022-12-13T04:57:07.363Z,10.70
2022-12-13T04:59:34.507Z,11.25
2022-12-13T05:02:01.888Z,10.85
2022-12-13T05:04:32.908Z,11.18
2022-12-13T05:07:02.368Z,11.60
2022-12-13T05:09:29.549Z,11.95
2022-12-13T05:12:01.583Z,11.98
2022-12-13T05:14:31.632Z,11.75
2022-12-13T05:17:01.837Z,12.27
2022-12-13T05:19:31.300Z,10.65
2022-12-13T05:22:02.908Z,12.15
2022-12-13T05:24:31.404Z,11.18
2022-12-13T05:26:59.400Z,11.88
2022-12-13T05:29:28.927Z,11.88
2022-12-13T05:31:56.306Z,12.30
2022-12-13T05:34:23.324Z,12.15
2022-12-13T05:36:51.008Z,11.30
2022-12-13T05:39:28.240Z,11.70
2022-12-13T05:42:02.049Z,11.68
2022-12-13T05:44:32.915Z,11.18
2022-12-13T05:47:02.375Z,11.98
2022-12-13T05:49:33.280Z,11.38
2022-12-13T05:52:00.601Z,11.50
2022-12-13T05:54:27.720Z,11.45
2022-12-13T05:56:55.233Z,10.77
2022-12-13T05:59:22.238Z,11.35
2022-12-13T06:01:49.665Z,12.18
2022-12-13T06:04:23.186Z,12.75
2022-12-13T06:06:52.238Z,11.02
2022-12-13T06:09:20.540Z,12.20
2022-12-13T06:11:48.976Z,12.75
2022-12-13T06:14:22.543Z,13.18
2022-12-13T06:16:52.404Z,13.38
2022-12-13T06:19:20.952Z,14.32
2022-12-13T06:21:48.706Z,13.95
2022-12-13T06:24:20.171Z,12.88
2022-12-13T06:26:48.079Z,12.48
2022-12-13T06:29:23.714Z,11.98
2022-12-13T06:32:02.207Z,12.48
2022-12-13T06:34:32.495Z,12.10
2022-12-13T06:37:00.696Z,12.15
2022-12-13T06:39:32.300Z,11.95
2022-12-13T06:42:03.389Z,11.02
2022-12-13T06:44:30.485Z,10.50
2022-12-13T06:47:11.659Z,10.65
2022-12-13T06:49:42.944Z,10.50
2022-12-13T06:52:12.851Z,10.50
2022-12-13T06:54:40.695Z,11.60
2022-12-13T06:57:08.168Z,12.10
2022-12-13T06:59:35.878Z,10.52
2022-12-13T07:02:04.530Z,11.57
2022-12-13T07:04:32.843Z,11.70
2022-12-13T07:07:00.981Z,11.57
2022-12-13T07:09:32.347Z,10.07
2022-12-13T07:12:00.460Z,9.90
2022-12-13T07:14:27.520Z,10.65
2022-12-13T07:17:01.382Z,11.02
2022-12-13T07:19:35.257Z,10.27
2022-12-13T07:22:09.686Z,11.82
2022-12-13T07:24:37.392Z,11.40
2022-12-13T07:27:05.157Z,13.10
2022-12-13T07:29:34.629Z,12.20
2022-12-13T07:32:02.386Z,14.23
2022-12-13T07:34:30.458Z,13.82
2022-12-13T07:36:58.169Z,12.80
2022-12-13T07:39:26.402Z,12.25
2022-12-13T07:41:57.363Z,12.38
2022-12-13T07:44:24.617Z,11.82
2022-12-13T07:46:52.660Z,11.95
2022-12-13T07:49:22.421Z,11.68
2022-12-13T07:51:49.768Z,12.35
2022-12-13T07:54:17.129Z,13.15
2022-12-13T07:56:44.669Z,14.48
2022-12-13T07:59:13.216Z,14.45
2022-12-13T08:01:40.509Z,14.82
2022-12-13T08:04:10.072Z,14.88
2022-12-13T08:06:39.598Z,16.17
2022-12-13T08:09:06.966Z,14.75
2022-12-13T08:11:34.651Z,13.98
2022-12-13T08:14:01.964Z,15.10
2022-12-13T08:16:30.577Z,13.15
2022-12-13T08:19:01.979Z,14.15
2022-12-13T08:21:57.149Z,15.38
2022-12-13T08:24:29.273Z,14.77
2022-12-13T08:27:02.162Z,17.30
2022-12-13T08:29:33.543Z,16.33
2022-12-13T08:32:08.374Z,14.65
2022-12-13T08:34:35.585Z,14.77
2022-12-13T08:37:04.341Z,14.38
2022-12-13T08:39:37.402Z,13.10
2022-12-13T08:42:18.771Z,14.00
2022-12-13T08:44:48.919Z,12.48
2022-12-13T08:47:23.082Z,12.70
2022-12-13T08:49:51.238Z,11.88
2022-12-13T08:52:19.443Z,12.07
2022-12-13T08:54:48.705Z,11.30
2022-12-13T08:57:15.958Z,11.60
2022-12-13T08:59:43.007Z,11.85
2022-12-13T09:02:13.910Z,11.45
2022-12-13T09:04:45.871Z,11.52
2022-12-13T09:07:13.672Z,11.45
2022-12-13T09:09:40.672Z,10.95
2022-12-13T09:12:10.280Z,13.82
2022-12-13T09:14:45.669Z,15.75
2022-12-13T09:17:24.819Z,15.68
2022-12-13T09:19:57.943Z,15.48
2022-12-13T09:22:34.025Z,15.27
2022-12-13T09:25:04.615Z,17.30
2022-12-13T09:27:39.832Z,16.20
2022-12-13T09:30:10.848Z,12.90
2022-12-13T09:32:38.176Z,15.88
2022-12-13T09:35:05.743Z,14.18
2022-12-13T09:37:33.144Z,14.02
2022-12-13T09:40:00.129Z,13.13
2022-12-13T09:43:08.329Z,12.85
2022-12-13T09:45:44.232Z,12.25
2022-12-13T09:48:22.779Z,11.55
2022-12-13T09:50:58.241Z,17.02
2022-12-13T09:53:40.608Z,13.65
2022-12-13T09:56:13.090Z,12.45
2022-12-13T09:58:40.555Z,12.10
2022-12-13T10:01:07.809Z,12.80
2022-12-13T10:03:35.190Z,11.85
2022-12-13T10:06:22.742Z,12.15
2022-12-13T10:08:59.352Z,10.70
2022-12-13T10:11:31.399Z,11.47
2022-12-13T10:14:09.705Z,12.02
2022-12-13T10:16:37.231Z,11.18
2022-12-13T10:19:28.915Z,12.77
2022-12-13T10:22:01.844Z,12.35
2022-12-13T10:24:56.190Z,11.18
2022-12-13T10:27:29.165Z,11.65
2022-12-13T10:30:08.029Z,10.40
2022-12-13T10:32:57.557Z,11.60
2022-12-13T10:35:38.027Z,11.02
2022-12-13T10:38:11.480Z,10.45
2022-12-13T10:40:48.876Z,11.27
2022-12-13T10:43:17.414Z,11.48
2022-12-13T10:45:58.960Z,11.35
2022-12-13T10:48:31.518Z,11.73
2022-12-13T10:51:15.557Z,12.18
2022-12-13T10:53:48.370Z,12.50
2022-12-13T10:56:22.889Z,11.15
2022-12-13T10:59:13.387Z,13.05
2022-12-13T11:01:44.789Z,11.43
2022-12-13T11:04:33.114Z,11.48
2022-12-13T11:07:33.270Z,11.73
2022-12-13T11:10:18.490Z,11.30
2022-12-13T11:12:50.116Z,11.20
2022-12-13T11:15:23.071Z,11.05
2022-12-13T11:17:55.812Z,11.60
2022-12-13T11:20:26.120Z,11.88
2022-12-13T11:23:24.035Z,10.88
2022-12-13T11:25:56.612Z,10.82
2022-12-13T11:28:53.398Z,11.73
2022-12-13T11:31:47.875Z,11.18
2022-12-13T11:34:24.119Z,11.88
2022-12-13T11:36:57.535Z,11.48
2022-12-13T11:39:32.417Z,10.60
2022-12-13T11:42:24.958Z,10.23
2022-12-13T11:45:07.435Z,9.15
2022-12-13T11:47:43.394Z,10.30
2022-12-13T11:50:41.145Z,9.35
2022-12-13T11:53:29.196Z,8.68
2022-12-13T11:56:05.932Z,8.43
2022-12-13T11:59:01.677Z,8.35
2022-12-13T12:01:32.791Z,7.43
2022-12-13T12:04:39.975Z,7.72
2022-12-13T12:07:35.942Z,8.20
2022-12-13T12:10:36.096Z,7.78
2022-12-13T12:13:12.913Z,8.27
2022-12-13T12:15:46.533Z,7.90
2022-12-13T12:18:16.530Z,7.55
2022-12-13T12:20:53.562Z,8.15
2022-12-13T12:23:48.372Z,7.28
2022-12-13T12:26:22.008Z,7.55
2022-12-13T12:29:28.805Z,7.10
2022-12-13T12:32:02.697Z,8.45
2022-12-13T12:34:53.186Z,7.97
2022-12-13T12:37:47.350Z,7.10
2022-12-13T12:41:15.615Z,5.65
2022-12-13T12:43:42.426Z,4.78
2022-12-13T12:47:17.773Z,4.63
2022-12-13T12:52:21.437Z,4.82
2022-12-13T12:55:16.217Z,4.88
2022-12-13T12:58:31.084Z,4.35
2022-12-13T13:01:01.156Z,4.32
2022-12-13T13:03:32.815Z,4.43
2022-12-13T13:06:04.742Z,5.40
2022-12-13T13:08:35.858Z,4.55
2022-12-13T13:11:06.039Z,4.93
2022-12-13T13:14:01.698Z,5.07
2022-12-13T13:16:35.169Z,5.30
2022-12-13T13:19:11.563Z,5.13
2022-12-13T13:21:43.022Z,4.85
2022-12-13T13:24:13.495Z,5.75
2022-12-13T13:26:51.123Z,5.88
2022-12-13T13:29:27.194Z,5.00
2022-12-13T13:32:01.878Z,5.25
2022-12-13T13:34:33.238Z,5.15
2022-12-13T13:37:02.207Z,4.97
2022-12-13T13:39:31.785Z,4.63
2022-12-13T13:42:09.631Z,5.35
2022-12-13T13:44:46.005Z,5.05
2022-12-13T13:47:21.146Z,5.03
2022-12-13T13:50:02.440Z,5.30
2022-12-13T13:52:51.369Z,5.43
2022-12-13T13:55:44.748Z,6.13
2022-12-13T13:58:33.069Z,5.38
2022-12-13T14:04:09.027Z,4.97
2022-12-13T14:06:45.371Z,5.13
2022-12-13T14:09:21.308Z,6.35
2022-12-13T14:12:07.390Z,5.78
2022-12-13T14:15:01.407Z,6.63
2022-12-13T14:17:56.863Z,7.03
2022-12-13T14:20:30.343Z,6.43
2022-12-13T14:23:36.146Z,5.70
2022-12-13T14:26:24.793Z,6.68
2022-12-13T14:29:00.459Z,5.78
2022-12-13T14:31:39.363Z,6.38
2022-12-13T14:34:08.332Z,5.65
2022-12-13T14:36:39.228Z,5.60
2022-12-13T14:39:24.492Z,6.70
2022-12-13T14:41:56.865Z,6.97
2022-12-13T14:44:36.391Z,6.38
2022-12-13T14:47:06.769Z,7.13
2022-12-13T14:49:38.405Z,6.53
2022-12-13T14:52:26.121Z,6.57
2022-12-13T14:55:06.914Z,6.90
2022-12-13T14:57:36.437Z,6.60
2022-12-13T15:00:40.210Z,8.27
2022-12-13T15:03:08.050Z,8.02
2022-12-13T15:05:47.153Z,25.00
2022-12-13T15:08:19.595Z,14.18
2022-12-13T15:10:48.889Z,8.57
2022-12-13T15:13:29.246Z,8.38
2022-12-13T15:16:10.287Z,11.10
2022-12-13T15:18:40.836Z,16.30
2022-12-13T15:21:23.389Z,9.93
2022-12-13T15:24:05.307Z,8.63
2022-12-13T15:26:35.553Z,8.30
2022-12-13T15:29:09.464Z,8.40
2022-12-13T15:34:28.244Z,9.90
2022-12-13T15:37:07.001Z,9.52
2022-12-13T15:39:48.251Z,8.70
2022-12-13T15:42:21.878Z,8.40
2022-12-13T15:44:56.091Z,10.05
2022-12-13T15:47:28.314Z,12.33
2022-12-13T15:50:01.131Z,10.27
2022-12-13T15:52:28.927Z,11.07
2022-12-13T15:54:59.749Z,10.20
2022-12-13T15:57:30.090Z,8.73
2022-12-13T16:00:30.910Z,9.88
2022-12-13T16:03:17.937Z,10.25
2022-12-13T16:05:52.093Z,9.88
2022-12-13T16:08:30.753Z,8.55
2022-12-13T16:10:58.419Z,8.95
2022-12-13T16:13:29.000Z,9.00
2022-12-13T16:16:27.240Z,10.05
2022-12-13T16:18:59.666Z,9.27
2022-12-13T16:21:28.079Z,9.20
2022-12-13T16:23:57.431Z,11.07
2022-12-13T16:26:29.595Z,10.98
2022-12-13T16:29:00.342Z,9.70
2022-12-13T16:31:35.925Z,10.82
2022-12-13T16:34:05.604Z,11.27
2022-12-13T16:36:33.183Z,12.45
2022-12-13T16:39:01.400Z,12.63
2022-12-13T16:41:28.617Z,12.45
2022-12-13T16:43:59.083Z,12.82
2022-12-13T16:47:11.690Z,10.82
2022-12-13T16:49:25.329Z,12.75
2022-12-13T16:51:53.462Z,13.20
2022-12-13T16:54:22.916Z,11.80
2022-12-13T16:56:51.808Z,12.20
2022-12-13T16:59:22.882Z,11.73
2022-12-13T17:01:53.899Z,11.48
2022-12-13T17:04:24.896Z,14.65
2022-12-13T17:06:55.071Z,15.27
2022-12-13T17:09:33.621Z,17.00
2022-12-13T17:12:01.261Z,17.15
2022-12-13T17:14:29.107Z,21.98
2022-12-13T17:16:57.270Z,24.35
2022-12-13T17:19:25.544Z,26.13
2022-12-13T17:21:56.358Z,17.33
2022-12-13T17:24:25.061Z,12.75
2022-12-13T17:26:57.341Z,15.40
2022-12-13T17:29:25.364Z,15.15
2022-12-13T17:31:54.975Z,15.60
2022-12-13T17:34:23.136Z,17.42
2022-12-13T17:36:52.826Z,20.10
2022-12-13T17:39:22.542Z,15.80
2022-12-13T17:41:55.668Z,15.15
2022-12-13T17:44:25.651Z,12.30
2022-12-13T17:46:55.528Z,13.30
2022-12-13T17:49:24.573Z,14.25
2022-12-13T17:51:54.666Z,14.23
2022-12-13T17:54:24.150Z,13.07
2022-12-13T17:56:52.863Z,13.70
2022-12-13T17:59:21.959Z,12.90
2022-12-13T18:01:49.943Z,13.02
2022-12-13T18:04:18.348Z,12.52
2022-12-13T18:06:47.341Z,13.15
2022-12-13T18:09:15.695Z,13.95
2022-12-13T18:11:44.949Z,13.57
2022-12-13T18:14:13.104Z,15.02
2022-12-13T18:16:40.897Z,14.20
2022-12-13T18:19:12.058Z,14.77
2022-12-13T18:21:40.047Z,15.27
2022-12-13T18:24:08.599Z,14.52
2022-12-13T18:26:37.529Z,14.82
2022-12-13T18:29:06.088Z,14.15
2022-12-13T18:31:34.336Z,14.63
2022-12-13T18:34:02.842Z,15.30
2022-12-13T18:36:31.596Z,14.98
2022-12-13T18:39:00.193Z,14.45
2022-12-13T18:41:30.085Z,13.98
2022-12-13T18:44:00.768Z,15.88
2022-12-13T18:46:31.385Z,14.55
2022-12-13T18:48:59.389Z,14.82
2022-12-13T18:51:27.965Z,13.95
2022-12-13T18:53:58.556Z,14.90
2022-12-13T18:56:31.171Z,14.52
2022-12-13T18:59:01.078Z,15.13
2022-12-13T19:01:28.854Z,14.00
2022-12-13T19:03:57.057Z,14.63
2022-12-13T19:06:27.874Z,14.55
2022-12-13T19:09:00.267Z,14.18
2022-12-13T19:11:29.740Z,15.48
2022-12-13T19:14:01.235Z,15.73
2022-12-13T19:16:29.886Z,16.20
2022-12-13T19:18:59.673Z,17.42
2022-12-13T19:21:29.869Z,16.48
2022-12-13T19:23:59.199Z,17.40
2022-12-13T19:26:30.253Z,16.08
2022-12-13T19:28:59.751Z,16.08
2022-12-13T19:31:32.025Z,16.13
2022-12-13T19:34:04.452Z,15.75
2022-12-13T19:36:34.396Z,15.85
2022-12-13T19:39:03.897Z,16.20
2022-12-13T19:41:35.559Z,16.08
2022-12-13T19:44:07.009Z,16.67
2022-12-13T19:46:37.534Z,16.80
2022-12-13T19:49:07.057Z,17.55
2022-12-13T19:51:39.891Z,19.17
2022-12-13T19:54:13.704Z,19.38
2022-12-13T19:56:44.949Z,18.80
2022-12-13T19:59:16.247Z,18.48
2022-12-13T20:01:48.039Z,20.02
2022-12-13T20:04:17.363Z,18.80
2022-12-13T20:06:45.395Z,20.42
2022-12-13T20:09:14.799Z,19.30
2022-12-13T20:11:43.496Z,16.92
2022-12-13T20:14:14.075Z,20.08
2022-12-13T20:16:44.298Z,20.02
2022-12-13T20:19:13.728Z,19.10
2022-12-13T20:21:42.779Z,17.38
2022-12-13T20:24:12.882Z,18.08
2022-12-13T20:26:41.696Z,18.50
2022-12-13T20:29:14.092Z,17.35
2022-12-13T20:31:42.835Z,17.42
2022-12-13T20:34:18.578Z,13.45
2022-12-13T20:36:47.543Z,17.23
2022-12-13T20:39:16.796Z,17.92
2022-12-13T20:41:47.231Z,17.30
2022-12-13T20:44:20.329Z,16.58
2022-12-13T20:46:53.236Z,17.35
2022-12-13T20:49:22.865Z,16.83
2022-12-13T20:51:54.621Z,17.75
2022-12-13T20:54:23.599Z,17.90
2022-12-13T20:56:52.623Z,17.48
2022-12-13T20:59:22.137Z,17.63
2022-12-13T21:01:50.241Z,17.58
2022-12-13T21:04:18.958Z,18.23
2022-12-13T21:06:47.026Z,18.45
2022-12-13T21:09:19.175Z,18.60
2022-12-13T21:11:50.383Z,18.25
2022-12-13T21:14:23.413Z,18.35
2022-12-13T21:16:56.638Z,16.88
2022-12-13T21:19:39.384Z,15.43
2022-12-13T21:22:07.643Z,16.67
2022-12-13T21:24:35.711Z,18.13
2022-12-13T21:27:03.452Z,16.58
2022-12-13T21:29:30.854Z,16.98
2022-12-13T21:31:57.953Z,16.48
2022-12-13T21:34:25.924Z,16.67
2022-12-13T21:36:53.491Z,18.00
2022-12-13T21:39:29.642Z,17.48
2022-12-13T21:41:57.926Z,16.02
2022-12-13T21:44:25.230Z,16.85
2022-12-13T21:47:11.874Z,17.98
2022-12-13T21:49:39.763Z,18.35
2022-12-13T21:52:06.929Z,16.85
2022-12-13T21:54:34.383Z,16.60
2022-12-13T21:57:22.159Z,18.15
2022-12-13T21:59:49.423Z,16.42
2022-12-13T22:02:20.415Z,16.85
2022-12-13T22:04:50.005Z,18.38
2022-12-13T22:07:24.592Z,17.55
2022-12-13T22:09:53.321Z,17.55
2022-12-13T22:12:26.729Z,17.17
2022-12-13T22:14:54.244Z,17.63
2022-12-13T22:17:31.227Z,16.92
2022-12-13T22:20:02.583Z,18.27
2022-12-13T22:22:31.195Z,17.20
2022-12-13T22:25:01.654Z,16.27
2022-12-13T22:27:28.695Z,16.33
2022-12-13T22:29:57.645Z,16.63
2022-12-13T22:32:27.111Z,16.30
2022-12-13T22:34:54.784Z,15.52
2022-12-13T22:37:22.484Z,15.18
2022-12-13T22:39:50.213Z,15.75
2022-12-13T22:42:17.262Z,17.10
2022-12-13T22:44:45.020Z,16.40
2022-12-13T22:47:12.065Z,15.98
2022-12-13T22:49:40.125Z,15.80
2022-12-13T22:52:08.872Z,15.85
2022-12-13T22:54:39.153Z,15.85
2022-12-13T22:57:07.058Z,17.13
2022-12-13T22:59:41.683Z,16.52
2022-12-13T23:02:10.127Z,11.73
2022-12-13T23:04:41.108Z,16.10
2022-12-13T23:07:08.250Z,16.35
2022-12-13T23:09:35.711Z,15.93
2022-12-13T23:12:23.963Z,16.42
2022-12-13T23:14:55.101Z,17.63
2022-12-13T23:17:22.634Z,16.30
2022-12-13T23:19:53.387Z,15.60
2022-12-13T23:22:25.899Z,15.20
2022-12-13T23:24:53.811Z,15.88
2022-12-13T23:27:23.088Z,16.27
2022-12-13T23:29:50.801Z,15.32
2022-12-13T23:32:18.772Z,16.15
2022-12-13T23:34:46.212Z,14.98
2022-12-13T23:37:13.831Z,15.77
2022-12-13T23:39:41.802Z,15.60
2022-12-13T23:42:08.895Z,15.57
2022-12-13T23:44:38.540Z,15.90
2022-12-13T23:47:05.628Z,16.45
2022-12-13T23:49:33.053Z,16.17
2022-12-13T23:52:00.917Z,16.15
2022-12-13T23:54:28.326Z,16.17
2022-12-13T23:56:55.438Z,15.25
2022-12-13T23:59:25.909Z,15.95
